Time;durP1;ratioP1;P1;durP2;ratioP2;P2;SDS_P1;SDS_P2;PMS_P1;PMS_P2;Temp;Humidity;BMP_temperature;BMP_pressure;BME280_temperature;BME280_humidity;BME280_pressure;Samples;Min_cycle;Max_cycle;Signal;HPM_P1;HPM_P2
2021/12/04 00:02:05;;;;;;;23.13;18.40;;;4.40;99.90;;;;;;5007575;28;20460;-57
2021/12/04 00:04:34;;;;;;;21.83;19.38;;;4.40;99.90;;;;;;5005691;28;20566;-57
2021/12/04 00:07:00;;;;;;;21.85;19.10;;;4.40;99.90;;;;;;5005743;28;20522;-57
2021/12/04 00:09:26;;;;;;;23.85;19.05;;;4.50;99.90;;;;;;5008042;28;20071;-58
2021/12/04 00:11:56;;;;;;;22.38;18.98;;;4.40;99.90;;;;;;5007320;28;20448;-57
2021/12/04 00:14:23;;;;;;;26.08;19.45;;;4.40;99.90;;;;;;5008084;28;20056;-57
2021/12/04 00:16:48;;;;;;;24.65;20.08;;;4.40;99.90;;;;;;5010815;28;20092;-56
2021/12/04 00:19:14;;;;;;;21.45;19.02;;;4.50;99.90;;;;;;5005549;28;20041;-57
2021/12/04 00:21:40;;;;;;;22.27;18.58;;;4.50;99.90;;;;;;5012088;28;20053;-58
2021/12/04 00:24:05;;;;;;;22.80;19.17;;;4.50;99.90;;;;;;5006814;28;20046;-56
2021/12/04 00:26:31;;;;;;;21.13;18.35;;;4.50;99.90;;;;;;5008821;28;20046;-56
2021/12/04 00:28:56;;;;;;;20.95;18.65;;;4.50;99.90;;;;;;5007671;28;20042;-57
2021/12/04 00:31:22;;;;;;;20.33;17.75;;;4.40;99.90;;;;;;5008743;28;20046;-56
2021/12/04 00:33:49;;;;;;;22.13;17.25;;;4.40;99.90;;;;;;5007891;28;20038;-57
2021/12/04 00:49:47;;;;;;;17.13;15.43;;;4.40;99.90;;;;;;5006408;28;20046;-57
2021/12/04 00:52:12;;;;;;;17.80;16.02;;;4.40;99.90;;;;;;5005834;28;20092;-56
2021/12/04 00:54:38;;;;;;;16.65;14.88;;;4.40;99.90;;;;;;5010210;28;20459;-57
2021/12/04 00:57:04;;;;;;;16.92;15.23;;;4.40;99.90;;;;;;5011207;28;20506;-57
2021/12/04 00:59:29;;;;;;;17.23;14.93;;;4.40;99.90;;;;;;5011535;28;20435;-57
2021/12/04 01:01:55;;;;;;;15.43;14.02;;;4.40;99.90;;;;;;5010979;28;20037;-57
2021/12/04 01:04:22;;;;;;;16.23;14.45;;;4.40;99.90;;;;;;5013127;28;20109;-56
2021/12/04 01:06:48;;;;;;;16.10;14.40;;;4.40;99.90;;;;;;5010877;28;20053;-56
2021/12/04 01:09:15;;;;;;;15.25;13.75;;;4.40;99.90;;;;;;5012924;28;20034;-56
2021/12/04 01:11:43;;;;;;;14.93;13.43;;;4.40;99.90;;;;;;5010406;28;20076;-58
2021/12/04 01:14:11;;;;;;;15.15;13.65;;;4.40;99.90;;;;;;5013554;28;20090;-57
2021/12/04 01:16:36;;;;;;;;;;;4.40;99.90;;;;;;5011815;28;20052;-57
2021/12/04 01:19:03;;;;;;;14.13;12.82;;;4.40;99.90;;;;;;5011923;28;20306;-57
2021/12/04 01:21:28;;;;;;;14.00;12.60;;;4.40;99.90;;;;;;5007679;28;20060;-58
2021/12/04 01:23:55;;;;;;;14.45;12.95;;;4.40;99.90;;;;;;5010859;28;20030;-57
2021/12/04 01:26:21;;;;;;;13.38;12.07;;;4.40;99.90;;;;;;5010154;28;20411;-56
2021/12/04 01:28:47;;;;;;;15.55;11.85;;;4.40;99.90;;;;;;5011493;28;20053;-57
2021/12/04 01:31:13;;;;;;;13.90;12.60;;;4.40;99.90;;;;;;5006519;28;20061;-55
2021/12/04 01:33:39;;;;;;;13.55;12.20;;;4.40;99.90;;;;;;5010788;28;20554;-57
2021/12/04 01:36:05;;;;;;;12.63;11.50;;;4.40;99.90;;;;;;5009966;28;20037;-57
2021/12/04 01:38:31;;;;;;;12.73;11.63;;;4.40;99.90;;;;;;5011596;28;20081;-57
2021/12/04 01:40:56;;;;;;;12.27;11.10;;;4.40;99.90;;;;;;5012129;28;20038;-57
2021/12/04 01:43:22;;;;;;;11.38;10.38;;;4.40;99.90;;;;;;5010835;28;20361;-58
2021/12/04 01:45:47;;;;;;;11.38;10.27;;;4.40;99.90;;;;;;5011613;28;20116;-56
2021/12/04 01:48:13;;;;;;;10.93;9.82;;;4.40;99.90;;;;;;5008673;28;20419;-58
2021/12/04 01:50:39;;;;;;;11.05;9.95;;;4.40;99.90;;;;;;5009799;28;20734;-56
2021/12/04 01:53:05;;;;;;;11.27;10.27;;;4.40;99.90;;;;;;5011746;28;20042;-58
2021/12/04 01:55:33;;;;;;;10.80;9.70;;;4.40;99.90;;;;;;5008333;28;20050;-57
2021/12/04 01:58:02;;;;;;;11.32;10.20;;;4.40;99.90;;;;;;5012500;28;20392;-57
2021/12/04 02:00:29;;;;;;;11.20;10.10;;;4.40;99.90;;;;;;5006553;28;20073;-58
2021/12/04 02:02:55;;;;;;;11.07;10.07;;;4.40;99.90;;;;;;5010826;28;20049;-56
2021/12/04 02:05:21;;;;;;;11.63;10.52;;;4.40;99.90;;;;;;5009602;28;20435;-56
2021/12/04 02:07:47;;;;;;;10.93;9.88;;;4.40;99.90;;;;;;5011078;28;20038;-57
2021/12/04 02:10:12;;;;;;;11.60;10.40;;;4.40;99.90;;;;;;5010509;28;20124;-57
2021/12/04 02:12:38;;;;;;;11.60;10.60;;;4.40;99.90;;;;;;5005462;28;20494;-57
2021/12/04 02:15:05;;;;;;;11.13;10.00;;;4.40;99.90;;;;;;5011381;28;20053;-56
2021/12/04 02:17:32;;;;;;;12.00;10.80;;;4.40;99.90;;;;;;5010159;28;20117;-57
2021/12/04 02:19:58;;;;;;;12.30;11.10;;;4.40;99.90;;;;;;4994459;28;20050;-58
2021/12/04 02:22:23;;;;;;;12.75;11.45;;;4.40;99.90;;;;;;5007922;28;20294;-56
2021/12/04 02:24:49;;;;;;;10.82;9.55;;;4.40;99.90;;;;;;5008932;28;20033;-57
2021/12/04 02:27:14;;;;;;;10.38;9.48;;;4.40;99.90;;;;;;5011677;28;20058;-58
2021/12/04 02:29:47;;;;;;;11.48;10.48;;;4.40;99.90;;;;;;5004669;28;20402;-57
2021/12/04 02:32:13;;;;;;;10.40;9.50;;;4.30;99.90;;;;;;5010324;28;20380;-55
2021/12/04 02:34:40;;;;;;;11.13;10.05;;;4.40;99.90;;;;;;5011120;28;20050;-57
2021/12/04 02:37:08;;;;;;;10.15;9.25;;;4.40;99.90;;;;;;5008656;28;20048;-57
2021/12/04 02:39:35;;;;;;;10.60;9.60;;;4.40;99.90;;;;;;5007777;28;20393;-58
2021/12/04 02:42:04;;;;;;;10.13;9.25;;;4.30;99.90;;;;;;5011030;28;20508;-58
2021/12/04 02:44:39;;;;;;;10.93;9.82;;;4.40;99.90;;;;;;5009521;28;20038;-57
2021/12/04 02:47:06;;;;;;;10.20;9.30;;;4.40;99.90;;;;;;5008140;28;20133;-57
2021/12/04 02:49:32;;;;;;;9.18;8.38;;;4.30;99.90;;;;;;5010577;28;20060;-56
2021/12/04 02:52:06;;;;;;;10.32;9.43;;;4.30;99.90;;;;;;5011010;28;20392;-57
2021/12/04 02:54:32;;;;;;;9.73;8.82;;;4.30;99.90;;;;;;5007754;28;20061;-58
2021/12/04 02:56:58;;;;;;;10.15;9.25;;;4.30;99.90;;;;;;5010467;28;20137;-55
2021/12/04 02:59:24;;;;;;;10.13;9.23;;;4.30;99.90;;;;;;5008190;28;20065;-58
2021/12/04 03:01:53;;;;;;;10.07;9.25;;;4.30;99.90;;;;;;5005576;28;20036;-57
2021/12/04 03:04:19;;;;;;;9.13;8.32;;;4.30;99.90;;;;;;5009059;28;20108;-57
2021/12/04 03:06:46;;;;;;;9.27;8.48;;;4.30;99.90;;;;;;5010730;28;20085;-57
2021/12/04 03:09:14;;;;;;;10.13;9.20;;;4.30;99.90;;;;;;5008991;28;20050;-57
2021/12/04 03:11:40;;;;;;;9.95;9.00;;;4.30;99.90;;;;;;5007351;28;20472;-56
2021/12/04 03:14:06;;;;;;;10.07;9.15;;;4.30;99.90;;;;;;5008816;28;20041;-57
2021/12/04 03:16:36;;;;;;;10.30;9.38;;;4.30;99.90;;;;;;5008953;28;20058;-56
2021/12/04 03:19:03;;;;;;;10.52;9.52;;;4.30;99.90;;;;;;5009646;28;20502;-58
2021/12/04 03:21:30;;;;;;;9.98;9.07;;;4.30;99.90;;;;;;5006667;28;20481;-57
2021/12/04 03:23:59;;;;;;;10.20;9.02;;;4.30;99.90;;;;;;5007551;28;21378;-57
2021/12/04 03:26:25;;;;;;;10.88;9.88;;;4.30;99.90;;;;;;5009561;28;20253;-58
2021/12/04 03:28:53;;;;;;;10.93;9.90;;;4.30;99.90;;;;;;5009743;28;20052;-58
2021/12/04 03:31:36;;;;;;;11.65;9.50;;;4.30;99.90;;;;;;5009392;28;20046;-57
2021/12/04 03:42:16;;;;;;;11.30;10.15;;;4.30;99.90;;;;;;5010318;28;20607;-57
2021/12/04 03:44:42;;;;;;;12.73;10.32;;;4.30;99.90;;;;;;5007904;28;20159;-57
2021/12/04 03:47:09;;;;;;;11.30;10.20;;;4.30;99.90;;;;;;5006523;28;20054;-56
2021/12/04 03:49:35;;;;;;;13.07;11.23;;;4.30;99.90;;;;;;5006549;28;20105;-56
2021/12/04 03:52:01;;;;;;;11.60;10.50;;;4.30;99.90;;;;;;4992357;28;20096;-56
2021/12/04 03:54:26;;;;;;;11.07;9.88;;;4.30;99.90;;;;;;5006669;28;20057;-57
2021/12/04 03:57:02;;;;;;;11.43;10.23;;;4.30;99.90;;;;;;5009249;28;20399;-59
2021/12/04 03:59:28;;;;;;;11.07;10.05;;;4.30;99.90;;;;;;5006458;28;20045;-57
2021/12/04 04:01:54;;;;;;;10.98;9.98;;;4.30;99.90;;;;;;5008590;28;20069;-57
2021/12/04 04:04:19;;;;;;;10.77;9.65;;;4.30;99.90;;;;;;5009006;28;20081;-57
2021/12/04 04:06:45;;;;;;;11.55;10.35;;;4.30;99.90;;;;;;4992280;28;20449;-57
2021/12/04 04:09:10;;;;;;;10.55;9.55;;;4.30;99.90;;;;;;4989792;28;20380;-57
2021/12/04 04:11:36;;;;;;;11.20;10.20;;;4.30;99.90;;;;;;5006771;28;20371;-57
2021/12/04 04:14:04;;;;;;;14.82;10.85;;;4.30;99.90;;;;;;5008787;28;20045;-57
2021/12/04 04:16:30;;;;;;;11.80;9.70;;;4.30;99.90;;;;;;5004123;28;20569;-57
2021/12/04 04:18:55;;;;;;;11.77;10.48;;;4.30;99.90;;;;;;5008742;28;20042;-56
2021/12/04 04:21:21;;;;;;;11.00;9.73;;;4.30;99.90;;;;;;5005531;28;20096;-57
2021/12/04 04:23:47;;;;;;;11.55;10.35;;;4.30;99.90;;;;;;5010513;28;20129;-57
2021/12/04 04:26:12;;;;;;;11.27;10.23;;;4.30;99.90;;;;;;5009000;28;20046;-57
2021/12/04 04:28:38;;;;;;;12.57;10.70;;;4.30;99.90;;;;;;5009801;28;20129;-56
2021/12/04 04:31:05;;;;;;;11.45;10.43;;;4.30;99.90;;;;;;5009678;28;20392;-57
2021/12/04 04:33:36;;;;;;;10.45;9.40;;;4.30;99.90;;;;;;5007938;28;20072;-57
2021/12/04 04:36:14;;;;;;;11.93;10.73;;;4.30;99.90;;;;;;5010194;28;20038;-57
2021/12/04 05:00:28;;;;;;;12.27;10.90;;;4.30;99.90;;;;;;5009304;28;20045;-57
2021/12/04 05:11:14;;;;;;;12.15;10.95;;;4.30;99.90;;;;;;5007400;28;20129;-57
2021/12/04 05:13:40;;;;;;;11.77;10.57;;;4.30;99.90;;;;;;5009040;28;20088;-56
2021/12/04 05:16:14;;;;;;;11.98;10.88;;;4.30;99.90;;;;;;5007377;28;20064;-58
2021/12/04 05:19:11;;;;;;;11.45;10.35;;;4.30;99.90;;;;;;5008181;28;20054;-57
2021/12/04 05:21:30;;;;;;;12.43;10.55;;;4.30;99.90;;;;;;5005815;28;20054;-58
2021/12/04 05:23:56;;;;;;;11.30;10.20;;;4.30;99.90;;;;;;4989959;28;20042;-57
2021/12/04 05:26:25;;;;;;;12.45;11.15;;;4.30;99.90;;;;;;5007113;28;20054;-58
2021/12/04 05:28:52;;;;;;;12.63;11.25;;;4.30;99.90;;;;;;5006958;28;20057;-57
2021/12/04 05:31:20;;;;;;;11.60;10.40;;;4.30;99.90;;;;;;5007422;28;20112;-58
2021/12/04 05:33:45;;;;;;;12.77;11.15;;;4.30;99.90;;;;;;5007541;28;20045;-57
2021/12/04 05:36:11;;;;;;;13.18;11.45;;;4.30;99.90;;;;;;5007647;28;20472;-56
2021/12/04 05:38:38;;;;;;;13.15;11.82;;;4.30;99.90;;;;;;5008300;28;20041;-57
2021/12/04 05:41:05;;;;;;;13.73;12.32;;;4.30;99.90;;;;;;5010261;28;20375;-57
2021/12/04 05:43:30;;;;;;;13.98;12.43;;;4.30;99.90;;;;;;5011166;28;20038;-57
2021/12/04 05:46:04;;;;;;;14.05;12.60;;;4.30;99.90;;;;;;5009910;28;20538;-57
2021/12/04 05:48:34;;;;;;;13.88;12.48;;;4.30;99.90;;;;;;5009439;28;20416;-57
2021/12/04 05:53:28;;;;;;;15.07;13.25;;;4.30;99.90;;;;;;5010319;28;20049;-57
2021/12/04 05:55:55;;;;;;;16.88;14.40;;;4.30;99.90;;;;;;5011207;28;20073;-57
2021/12/04 05:58:32;;;;;;;14.95;13.15;;;4.30;99.90;;;;;;5011172;28;20793;-57
2021/12/04 06:01:01;;;;;;;15.23;13.15;;;4.30;99.90;;;;;;5011358;28;20266;-56
2021/12/04 06:03:27;;;;;;;15.13;13.55;;;4.30;99.90;;;;;;5009810;28;20038;-56
2021/12/04 06:05:53;;;;;;;15.52;13.82;;;4.30;99.90;;;;;;5011811;28;20050;-57
2021/12/04 06:08:19;;;;;;;15.55;13.98;;;4.30;99.90;;;;;;5009605;28;20041;-57
2021/12/04 06:10:46;;;;;;;16.70;14.95;;;4.30;99.90;;;;;;5011269;28;20038;-58
2021/12/04 06:13:12;;;;;;;15.73;14.13;;;4.30;99.90;;;;;;5010573;28;20100;-56
2021/12/04 06:15:38;;;;;;;14.57;13.05;;;4.30;99.90;;;;;;5011372;28;20038;-57
2021/12/04 06:18:04;;;;;;;17.70;14.02;;;4.30;99.90;;;;;;5008005;28;20050;-57
2021/12/04 06:23:14;;;;;;;17.05;14.00;;;4.30;99.90;;;;;;5010048;28;20073;-57
2021/12/04 06:25:39;;;;;;;16.98;15.00;;;4.30;99.90;;;;;;5011376;28;20057;-58
2021/12/04 06:28:06;;;;;;;19.50;15.45;;;4.40;99.90;;;;;;5010053;28;20396;-58
2021/12/04 06:30:37;;;;;;;16.58;14.77;;;4.30;99.90;;;;;;5011334;28;20483;-57
2021/12/04 06:33:05;;;;;;;15.57;13.98;;;4.30;99.90;;;;;;5009222;28;20424;-57
2021/12/04 06:35:32;;;;;;;16.48;14.20;;;4.40;99.90;;;;;;5011092;28;20141;-58
2021/12/04 06:37:58;;;;;;;17.88;14.48;;;4.40;99.90;;;;;;4991355;28;20353;-57
2021/12/04 06:40:27;;;;;;;17.73;13.93;;;4.40;99.90;;;;;;5010247;28;20049;-58
2021/12/04 06:42:55;;;;;;;15.95;14.35;;;4.40;99.90;;;;;;5008741;28;20046;-56
2021/12/04 06:45:21;;;;;;;19.25;15.20;;;4.40;99.90;;;;;;5010905;28;20057;-57
2021/12/04 06:47:59;;;;;;;18.67;14.70;;;4.40;99.90;;;;;;5007088;28;20104;-57
2021/12/04 06:53:01;;;;;;;20.00;15.18;;;4.40;99.90;;;;;;5010350;28;20509;-56
2021/12/04 06:55:30;;;;;;;17.10;14.68;;;4.40;99.90;;;;;;5010703;28;21132;-57
2021/12/04 06:57:56;;;;;;;19.05;14.75;;;4.40;99.90;;;;;;5009198;28;20530;-57
2021/12/04 07:00:23;;;;;;;20.20;14.38;;;4.40;99.90;;;;;;4992878;28;20140;-57
2021/12/04 07:02:49;;;;;;;19.98;15.88;;;4.40;99.90;;;;;;5008512;28;20046;-57
2021/12/04 07:05:14;;;;;;;20.50;15.45;;;4.40;99.90;;;;;;5008248;28;20069;-57
2021/12/04 07:07:40;;;;;;;20.52;15.77;;;4.40;99.90;;;;;;5007767;28;20038;-57
2021/12/04 07:10:06;;;;;;;19.98;15.13;;;4.40;99.90;;;;;;5010527;28;20042;-57
2021/12/04 07:12:31;;;;;;;23.67;16.30;;;4.40;99.90;;;;;;5009858;28;20033;-56
2021/12/04 07:14:57;;;;;;;21.20;16.52;;;4.40;99.90;;;;;;5009506;28;20128;-58
2021/12/04 07:17:23;;;;;;;24.80;15.90;;;4.40;99.90;;;;;;5009993;28;20515;-57
2021/12/04 07:19:48;;;;;;;22.13;16.08;;;4.40;99.90;;;;;;5008964;28;20045;-58
2021/12/04 07:22:14;;;;;;;23.05;16.23;;;4.40;99.90;;;;;;5006852;28;20046;-58
2021/12/04 07:24:39;;;;;;;26.52;15.75;;;4.40;99.90;;;;;;5007000;28;20139;-56
2021/12/04 07:27:06;;;;;;;20.70;16.08;;;4.40;99.90;;;;;;5002815;28;20127;-56
2021/12/04 07:29:31;;;;;;;24.33;16.23;;;4.40;99.90;;;;;;5009581;28;20352;-57
2021/12/04 07:31:57;;;;;;;22.98;16.23;;;4.40;99.90;;;;;;5007422;28;20060;-58
2021/12/04 07:34:23;;;;;;;25.77;16.67;;;4.40;99.90;;;;;;5008818;28;20050;-57
2021/12/04 07:36:49;;;;;;;24.05;16.67;;;4.40;99.90;;;;;;5009824;28;20133;-57
2021/12/04 07:39:15;;;;;;;27.23;17.48;;;4.50;99.90;;;;;;5008194;28;20120;-57
2021/12/04 07:41:42;;;;;;;31.95;17.73;;;4.40;99.90;;;;;;5010506;28;20121;-57
2021/12/04 07:44:08;;;;;;;26.17;16.00;;;4.40;99.90;;;;;;5008325;28;20148;-57
2021/12/04 07:46:36;;;;;;;25.58;17.20;;;4.50;99.90;;;;;;5009532;28;20136;-56
2021/12/04 07:49:01;;;;;;;25.27;17.57;;;4.50;99.90;;;;;;5008698;28;20037;-57
2021/12/04 07:51:27;;;;;;;27.75;17.13;;;4.50;99.90;;;;;;4992009;28;20052;-58
2021/12/04 07:53:52;;;;;;;30.42;18.10;;;4.50;99.90;;;;;;5009270;28;20034;-57
2021/12/04 07:56:18;;;;;;;26.15;17.17;;;4.50;99.90;;;;;;4991749;28;20049;-58
2021/12/04 07:58:44;;;;;;;27.90;17.67;;;4.50;99.90;;;;;;5009502;28;20042;-57
2021/12/04 08:01:10;;;;;;;32.58;18.80;;;4.50;99.90;;;;;;5008360;28;20066;-57
2021/12/04 08:03:36;;;;;;;26.85;17.38;;;4.50;99.90;;;;;;5007505;28;20133;-55
2021/12/04 08:06:03;;;;;;;30.75;18.50;;;4.50;99.90;;;;;;5009846;28;20125;-57
2021/12/04 08:08:28;;;;;;;27.20;17.15;;;4.50;99.90;;;;;;5008246;28;20042;-56
2021/12/04 08:10:54;;;;;;;27.65;16.58;;;4.50;99.90;;;;;;5009861;28;20143;-57
2021/12/04 08:13:20;;;;;;;33.33;18.52;;;4.50;99.90;;;;;;5007871;28;20135;-58
2021/12/04 08:15:45;;;;;;;35.25;18.60;;;4.50;99.90;;;;;;5006717;28;20046;-57
2021/12/04 08:18:11;;;;;;;30.98;17.73;;;4.50;99.90;;;;;;5009892;28;20054;-57
2021/12/04 08:20:37;;;;;;;28.95;17.65;;;4.50;99.90;;;;;;5009463;28;20037;-57
2021/12/04 08:23:04;;;;;;;40.42;19.38;;;4.50;99.90;;;;;;5009211;28;20057;-57
2021/12/04 08:25:31;;;;;;;33.55;19.02;;;4.50;99.90;;;;;;5009019;28;20407;-57
2021/12/04 08:27:58;;;;;;;30.65;18.33;;;4.50;99.90;;;;;;5007168;28;20073;-57
2021/12/04 08:30:27;;;;;;;34.97;18.75;;;4.50;99.90;;;;;;5007838;28;20531;-58
2021/12/04 08:32:56;;;;;;;37.88;19.60;;;4.50;99.90;;;;;;5008354;28;20050;-58
2021/12/04 08:35:24;;;;;;;38.17;20.38;;;4.50;99.90;;;;;;5003366;28;20037;-56
2021/12/04 08:37:57;;;;;;;33.70;17.35;;;4.50;99.90;;;;;;5004686;28;20508;-57
2021/12/04 08:40:24;;;;;;;35.33;18.00;;;4.50;99.90;;;;;;5006521;28;20122;-58
2021/12/04 08:42:49;;;;;;;36.25;18.23;;;4.50;99.90;;;;;;5005068;28;20046;-57
2021/12/04 08:45:16;;;;;;;31.27;17.92;;;4.60;99.90;;;;;;5008573;28;20395;-57
2021/12/04 08:47:42;;;;;;;31.85;17.63;;;4.60;99.90;;;;;;5010240;28;20133;-57
2021/12/04 08:50:11;;;;;;;41.45;19.48;;;4.60;99.90;;;;;;5011263;28;20488;-57
2021/12/04 08:52:38;;;;;;;37.72;18.40;;;;;;;;;;5009011;28;20038;-57
2021/12/04 08:55:05;;;;;;;32.72;17.88;;;4.60;99.90;;;;;;5009538;28;20415;-57
2021/12/04 08:57:31;;;;;;;32.78;17.77;;;4.60;99.90;;;;;;5007054;28;20046;-57
2021/12/04 08:59:56;;;;;;;39.72;18.65;;;4.60;99.90;;;;;;5010820;28;20046;-57
2021/12/04 09:02:23;;;;;;;35.05;18.45;;;4.60;99.90;;;;;;5010007;28;20042;-58
2021/12/04 09:04:49;;;;;;;35.80;18.58;;;4.70;99.90;;;;;;5011070;28;20050;-58
2021/12/04 09:07:15;;;;;;;36.50;18.00;;;4.70;99.90;;;;;;5010425;28;20168;-58
2021/12/04 09:09:41;;;;;;;36.38;18.40;;;4.70;99.90;;;;;;5011167;28;20045;-57
2021/12/04 09:12:09;;;;;;;37.33;18.38;;;4.70;99.90;;;;;;5009087;28;20044;-56
2021/12/04 09:14:37;;;;;;;38.78;18.45;;;4.70;99.90;;;;;;5010655;28;20064;-57
2021/12/04 09:17:06;;;;;;;;;;;4.70;99.90;;;;;;5012054;28;20085;-57
2021/12/04 09:19:32;;;;;;;39.67;19.50;;;4.70;99.90;;;;;;5007747;28;19922;-55
2021/12/04 09:21:58;;;;;;;40.58;20.63;;;4.80;99.90;;;;;;5013699;28;20522;-56
2021/12/04 09:24:28;;;;;;;53.30;22.50;;;4.80;99.90;;;;;;5009725;28;20042;-57
2021/12/04 10:20:36;;;;;;;46.45;23.40;;;5.20;99.90;;;;;;4929557;29;20055;-57
2021/12/04 10:33:51;;;;;;;50.95;25.80;;;5.20;99.90;;;;;;4924119;29;20051;-55
2021/12/04 10:36:31;;;;;;;50.33;27.35;;;5.20;99.90;;;;;;4927916;29;20039;-56
2021/12/04 10:38:57;;;;;;;51.80;28.27;;;5.20;99.90;;;;;;4928819;29;20106;-56
2021/12/04 10:41:34;;;;;;;58.35;28.75;;;5.20;99.90;;;;;;4930599;29;20052;-54
2021/12/04 10:44:22;;;;;;;61.78;29.38;;;5.20;99.90;;;;;;5008742;28;20048;-55
2021/12/04 10:47:04;;;;;;;59.85;28.95;;;5.20;99.90;;;;;;5007138;28;20093;-54
2021/12/04 10:49:45;;;;;;;67.05;31.77;;;5.20;99.90;;;;;;5008483;28;20525;-56
2021/12/04 10:52:30;;;;;;;68.28;31.90;;;5.20;99.90;;;;;;5007585;28;20061;-53
2021/12/04 10:55:13;;;;;;;66.78;31.30;;;5.20;99.90;;;;;;5009296;28;20037;-56
2021/12/04 11:03:06;;;;;;;64.30;32.28;;;5.20;99.90;;;;;;5006461;28;20057;-57
2021/12/04 11:27:35;;;;;;;87.18;38.55;;;5.20;99.90;;;;;;5007800;28;20050;-56
2021/12/04 11:38:20;;;;;;;79.05;38.00;;;5.20;99.90;;;;;;5006528;28;20057;-56
2021/12/04 11:43:21;;;;;;;84.47;35.33;;;5.20;99.90;;;;;;5006965;28;20054;-56
2021/12/04 11:46:17;;;;;;;78.47;37.38;;;5.20;99.90;;;;;;5008476;28;20142;-56
2021/12/04 11:48:43;;;;;;;82.38;38.88;;;5.20;99.90;;;;;;5005015;28;20103;-54
2021/12/04 11:51:21;;;;;;;71.03;35.40;;;5.30;99.90;;;;;;5006970;28;20143;-55
2021/12/04 11:53:48;;;;;;;80.55;36.83;;;5.40;99.90;;;;;;5007630;28;20061;-55
2021/12/04 11:56:26;;;;;;;69.45;35.47;;;5.50;99.90;;;;;;5008162;28;20139;-56
2021/12/04 11:58:52;;;;;;;;;;;5.50;99.90;;;;;;5005510;28;20129;-56
2021/12/04 12:01:31;;;;;;;63.80;33.95;;;5.60;99.90;;;;;;5006927;28;20064;-55
2021/12/04 12:04:04;;;;;;;66.85;34.42;;;5.60;99.90;;;;;;5007709;28;20065;-56
2021/12/04 12:06:43;;;;;;;59.80;32.63;;;;;;;;;;5007848;28;20403;-57
2021/12/04 12:09:14;;;;;;;66.75;35.35;;;5.40;99.90;;;;;;5004227;28;20044;-57
2021/12/04 12:11:56;;;;;;;62.90;33.13;;;5.40;99.90;;;;;;5006595;28;20053;-56
2021/12/04 12:14:36;;;;;;;61.70;33.90;;;5.40;99.90;;;;;;5008485;28;20054;-56
2021/12/04 12:17:02;;;;;;;66.18;33.58;;;5.40;99.90;;;;;;5006399;28;20041;-56
2021/12/04 12:19:36;;;;;;;71.20;35.67;;;5.40;99.90;;;;;;5006418;28;20423;-56
2021/12/04 12:33:14;;;;;;;69.00;34.78;;;5.30;99.90;;;;;;5002500;28;20089;-57
2021/12/04 12:36:03;;;;;;;71.30;36.45;;;5.30;99.90;;;;;;5006785;28;20030;-57
2021/12/04 12:38:40;;;;;;;68.28;36.53;;;5.30;99.90;;;;;;5009056;28;20050;-56
2021/12/04 12:41:16;;;;;;;74.45;36.50;;;5.30;99.90;;;;;;5009464;28;20037;-56
2021/12/04 12:43:45;;;;;;;67.38;35.88;;;5.30;99.90;;;;;;5009529;28;20038;-56
2021/12/04 12:46:11;;;;;;;68.07;35.35;;;5.30;99.90;;;;;;5010020;28;20076;-57
2021/12/04 12:48:48;;;;;;;66.43;34.60;;;5.30;99.90;;;;;;5008984;28;20131;-56
2021/12/04 12:51:15;;;;;;;66.65;34.55;;;5.30;99.90;;;;;;5012395;28;20108;-57
2021/12/04 12:53:46;;;;;;;69.60;35.67;;;5.30;99.90;;;;;;5012680;28;20037;-56
2021/12/04 12:56:15;;;;;;;66.95;33.90;;;5.30;99.90;;;;;;5009302;28;20073;-56
2021/12/04 12:58:52;;;;;;;64.65;33.47;;;5.30;99.90;;;;;;5011726;28;20423;-56
2021/12/04 13:12:49;;;;;;;60.72;32.08;;;5.30;99.90;;;;;;5012722;28;20156;-56
2021/12/04 13:15:32;;;;;;;61.60;32.15;;;5.30;99.90;;;;;;5012601;28;20038;-56
2021/12/04 13:18:13;;;;;;;60.08;31.85;;;5.30;99.90;;;;;;5012221;28;20448;-57
2021/12/04 13:20:39;;;;;;;59.65;32.65;;;5.30;99.90;;;;;;5009283;28;20086;-56
2021/12/04 13:23:10;;;;;;;60.50;31.20;;;5.40;99.90;;;;;;5012468;28;20074;-56
2021/12/04 13:25:36;;;;;;;57.20;29.23;;;5.40;99.90;;;;;;5007436;28;20563;-56
2021/12/04 13:30:27;;;;;;;54.10;29.95;;;5.40;99.90;;;;;;5013221;28;20399;-56
2021/12/04 13:32:53;;;;;;;51.70;29.40;;;5.50;99.90;;;;;;5010918;28;20042;-57
2021/12/04 13:35:21;;;;;;;55.90;30.17;;;5.50;99.90;;;;;;5012402;28;20046;-56
2021/12/04 13:37:48;;;;;;;48.22;29.63;;;5.50;99.90;;;;;;5010727;28;20073;-57
2021/12/04 13:40:17;;;;;;;50.97;29.15;;;5.50;99.90;;;;;;5013809;28;20046;-56
2021/12/04 13:42:45;;;;;;;52.78;29.30;;;5.50;99.90;;;;;;5013519;28;20042;-56
2021/12/04 13:45:13;;;;;;;46.95;28.40;;;5.50;99.90;;;;;;5012365;28;20097;-56
2021/12/04 13:47:40;;;;;;;49.80;29.63;;;5.50;99.90;;;;;;5012227;28;20083;-57
2021/12/04 13:53:01;;;;;;;52.05;29.77;;;5.40;99.90;;;;;;5012756;28;20045;-57
2021/12/04 13:55:28;;;;;;;51.55;29.50;;;5.40;99.90;;;;;;5005405;28;20117;-56
2021/12/04 13:57:54;;;;;;;51.33;29.63;;;5.40;99.90;;;;;;5007663;28;20081;-56
2021/12/04 14:00:20;;;;;;;53.40;29.55;;;5.40;99.90;;;;;;5011036;28;20054;-56
2021/12/04 14:02:46;;;;;;;52.72;29.98;;;5.40;99.90;;;;;;5010743;28;20100;-57
2021/12/04 14:05:15;;;;;;;47.65;28.45;;;5.40;99.90;;;;;;4994716;28;20048;-56
2021/12/04 14:07:49;;;;;;;53.75;28.55;;;5.40;99.90;;;;;;5012191;28;20421;-56
2021/12/04 14:10:23;;;;;;;49.85;28.95;;;5.40;99.90;;;;;;5011909;28;20042;-55
2021/12/04 14:12:49;;;;;;;57.58;31.17;;;5.40;99.90;;;;;;5012315;28;20053;-56
2021/12/04 14:15:18;;;;;;;54.63;29.98;;;5.40;99.90;;;;;;5011722;28;20046;-56
2021/12/04 14:17:45;;;;;;;55.67;32.00;;;5.40;99.90;;;;;;5005480;28;20102;-56
2021/12/04 14:20:19;;;;;;;56.88;30.60;;;5.40;99.90;;;;;;5012191;28;20045;-55
2021/12/04 14:22:50;;;;;;;56.92;31.60;;;5.40;99.90;;;;;;5005104;28;20100;-56
2021/12/04 14:25:18;;;;;;;58.38;32.38;;;5.40;99.90;;;;;;5009522;28;20054;-55
2021/12/04 14:27:44;;;;;;;60.30;32.40;;;5.30;99.90;;;;;;5010631;28;20125;-56
2021/12/04 14:30:10;;;;;;;52.08;31.02;;;5.30;99.90;;;;;;5012235;28;20069;-55
2021/12/04 14:32:37;;;;;;;57.80;31.65;;;5.30;99.90;;;;;;5011212;28;20069;-57
2021/12/04 14:35:15;;;;;;;57.17;32.53;;;5.30;99.90;;;;;;5010737;28;20100;-56
2021/12/04 14:37:42;;;;;;;58.30;32.25;;;5.30;99.90;;;;;;5010695;28;20058;-56
2021/12/04 14:40:11;;;;;;;55.80;31.00;;;5.30;99.90;;;;;;5011638;28;20053;-57
2021/12/04 14:42:37;;;;;;;54.47;31.80;;;5.30;99.90;;;;;;5010344;28;20621;-56
2021/12/04 14:45:10;;;;;;;49.75;30.75;;;5.30;99.90;;;;;;5011968;28;20128;-56
2021/12/04 14:47:46;;;;;;;55.80;31.83;;;5.30;99.90;;;;;;4993620;28;20108;-56
2021/12/04 14:50:14;;;;;;;54.67;31.00;;;5.30;99.90;;;;;;5011704;28;20329;-56
2021/12/04 14:52:41;;;;;;;46.15;30.35;;;5.30;99.90;;;;;;5010950;28;20049;-57
2021/12/04 14:55:22;;;;;;;44.90;29.70;;;5.30;99.90;;;;;;5010250;28;20112;-56
2021/12/04 14:57:49;;;;;;;47.70;29.45;;;5.30;99.90;;;;;;5006065;28;20030;-56
2021/12/04 15:00:16;;;;;;;51.97;31.70;;;5.30;99.90;;;;;;5011552;28;20049;-57
2021/12/04 15:02:53;;;;;;;45.47;29.10;;;5.30;99.90;;;;;;5010514;28;20041;-56
2021/12/04 15:05:32;;;;;;;47.28;29.08;;;5.30;99.90;;;;;;5011153;28;20419;-56
2021/12/04 15:08:03;;;;;;;43.10;28.90;;;5.30;99.90;;;;;;5009747;28;20053;-57
2021/12/04 15:10:28;;;;;;;41.08;29.13;;;5.30;99.90;;;;;;5010139;28;20060;-57
2021/12/04 15:12:58;;;;;;;45.80;29.23;;;5.30;99.90;;;;;;5010179;28;20054;-55
2021/12/04 15:15:26;;;;;;;47.80;29.20;;;5.30;99.90;;;;;;5010980;28;20049;-57
2021/12/04 15:17:54;;;;;;;47.72;29.80;;;5.30;99.90;;;;;;5008710;28;20049;-56
2021/12/04 15:20:28;;;;;;;42.70;28.33;;;5.30;99.90;;;;;;5011123;28;20050;-56
2021/12/04 15:22:57;;;;;;;45.95;28.67;;;5.20;99.90;;;;;;4992892;28;20407;-57
2021/12/04 15:25:25;;;;;;;41.78;28.13;;;5.30;99.90;;;;;;5007112;28;20577;-57
2021/12/04 15:27:51;;;;;;;42.50;28.48;;;5.30;99.90;;;;;;5009672;28;20092;-55
2021/12/04 15:30:18;;;;;;;41.28;28.25;;;5.20;99.90;;;;;;5011121;28;20042;-56
2021/12/04 15:32:45;;;;;;;37.17;28.17;;;5.20;99.90;;;;;;5010747;28;20042;-57
2021/12/04 15:35:33;;;;;;;44.60;28.35;;;5.30;99.90;;;;;;5009904;28;20398;-56
2021/12/04 15:38:16;;;;;;;43.33;28.85;;;5.20;99.90;;;;;;5009492;28;20052;-58
2021/12/04 15:41:03;;;;;;;40.97;28.30;;;5.20;99.90;;;;;;5007264;28;20045;-58
2021/12/04 15:43:57;;;;;;;36.63;26.88;;;5.20;99.90;;;;;;5009324;28;20042;-58
2021/12/04 15:46:37;;;;;;;40.80;28.48;;;5.20;99.90;;;;;;5003674;28;20050;-56
2021/12/04 15:54:26;;;;;;;40.63;28.50;;;5.20;99.90;;;;;;4999515;28;20056;-58
2021/12/04 15:56:54;;;;;;;40.92;28.63;;;5.20;99.90;;;;;;5007436;28;20507;-56
2021/12/04 15:59:24;;;;;;;47.70;28.30;;;5.20;99.90;;;;;;5004156;28;20045;-58
2021/12/04 16:01:53;;;;;;;45.58;30.45;;;5.20;99.90;;;;;;4987047;28;20057;-57
2021/12/04 16:04:23;;;;;;;42.58;29.92;;;5.20;99.90;;;;;;5009658;28;20045;-57